createdAt,value
2022-12-07T00:00:16.580Z,94.40
2022-12-07T00:02:46.190Z,94.40
2022-12-07T00:05:15.885Z,94.40
2022-12-07T00:07:45.484Z,94.40
2022-12-07T00:10:15.076Z,94.50
2022-12-07T00:12:44.683Z,94.50
2022-12-07T00:15:14.304Z,94.50
2022-12-07T00:17:43.913Z,94.50
2022-12-07T00:20:13.897Z,94.60
2022-12-07T00:22:43.451Z,94.60
2022-12-07T00:25:12.972Z,94.70
2022-12-07T00:27:42.597Z,94.70
2022-12-07T00:30:12.592Z,94.70
2022-12-07T00:32:42.249Z,94.70
2022-12-07T00:35:12.056Z,94.80
2022-12-07T00:37:41.657Z,94.80
2022-12-07T00:40:12.791Z,94.80
2022-12-07T00:42:42.765Z,94.80
2022-12-07T00:45:13.019Z,94.80
2022-12-07T00:47:43.364Z,94.80
2022-12-07T00:50:13.350Z,94.80
2022-12-07T00:52:43.297Z,94.80
2022-12-07T00:55:13.281Z,94.80
2022-12-07T00:57:43.226Z,94.80
2022-12-07T01:00:13.539Z,94.80
2022-12-07T01:02:43.670Z,94.80
2022-12-07T01:05:13.649Z,94.80
2022-12-07T01:07:43.670Z,94.80
2022-12-07T01:10:13.624Z,94.80
2022-12-07T01:12:43.787Z,94.80
2022-12-07T01:15:13.714Z,94.70
2022-12-07T01:17:43.454Z,94.60
2022-12-07T01:20:13.911Z,94.50
2022-12-07T01:22:45.369Z,94.50
2022-12-07T01:25:15.487Z,94.40
2022-12-07T01:27:45.164Z,94.30
2022-12-07T01:30:17.571Z,94.20
2022-12-07T01:32:47.185Z,94.10
2022-12-07T01:35:16.781Z,94.00
2022-12-07T01:37:46.484Z,93.80
2022-12-07T01:40:16.978Z,94.00
2022-12-07T01:42:47.009Z,93.60
2022-12-07T01:45:45.898Z,93.80
2022-12-07T01:48:20.793Z,93.40
2022-12-07T01:50:54.134Z,93.30
2022-12-07T01:53:25.921Z,93.20
2022-12-07T01:55:57.338Z,93.20
2022-12-07T01:58:28.259Z,93.00
2022-12-07T02:00:58.259Z,92.90
2022-12-07T02:03:35.510Z,92.70
2022-12-07T02:06:05.418Z,92.50
2022-12-07T02:08:36.153Z,91.80
2022-12-07T02:11:08.707Z,92.10
2022-12-07T02:13:41.896Z,91.60
2022-12-07T02:16:41.993Z,91.50
2022-12-07T02:19:42.385Z,90.90
2022-12-07T02:22:51.172Z,90.20
2022-12-07T02:25:56.953Z,89.70
2022-12-07T02:28:40.942Z,89.90
2022-12-07T02:31:17.302Z,90.00
2022-12-07T02:33:55.874Z,89.90
2022-12-07T02:36:31.616Z,89.80
2022-12-07T02:39:12.229Z,89.40
2022-12-07T02:41:49.499Z,88.90
2022-12-07T02:44:24.441Z,88.80
2022-12-07T02:47:06.721Z,88.40
2022-12-07T02:49:38.980Z,87.10
2022-12-07T02:52:08.619Z,86.60
2022-12-07T02:54:38.369Z,85.80
2022-12-07T02:57:34.473Z,85.80
2022-12-07T03:00:17.852Z,85.80
2022-12-07T03:03:19.261Z,85.70
2022-12-07T03:06:17.587Z,85.40
2022-12-07T03:09:10.354Z,85.50
2022-12-07T03:11:51.600Z,85.60
2022-12-07T03:14:43.695Z,85.10
2022-12-07T03:17:31.636Z,85.00
2022-12-07T03:20:02.293Z,84.90
2022-12-07T03:22:37.326Z,84.30
2022-12-07T03:25:11.344Z,84.90
2022-12-07T03:27:58.713Z,84.90
2022-12-07T03:30:36.251Z,84.90
2022-12-07T03:33:34.541Z,84.60
2022-12-07T03:36:11.386Z,83.70
2022-12-07T03:39:13.051Z,84.10
2022-12-07T03:41:45.401Z,83.80
2022-12-07T03:44:18.386Z,83.70
2022-12-07T03:47:16.609Z,83.20
2022-12-07T03:50:02.020Z,83.00
2022-12-07T03:53:05.563Z,83.20
2022-12-07T03:55:38.704Z,82.90
2022-12-07T03:58:14.216Z,83.10
2022-12-07T04:00:45.536Z,82.60
2022-12-07T04:03:15.655Z,82.80
2022-12-07T04:05:46.950Z,82.50
2022-12-07T04:08:16.911Z,82.20
2022-12-07T04:10:46.891Z,82.20
2022-12-07T04:13:16.954Z,82.10
2022-12-07T04:15:46.634Z,82.20
2022-12-07T04:18:16.229Z,81.90
2022-12-07T04:20:45.884Z,81.50
2022-12-07T04:23:15.453Z,81.70
2022-12-07T04:25:44.989Z,81.60
2022-12-07T04:28:14.636Z,81.40
2022-12-07T04:30:44.189Z,80.80
2022-12-07T04:33:13.796Z,80.30
2022-12-07T04:35:45.260Z,80.50
2022-12-07T04:38:14.875Z,80.30
2022-12-07T04:40:44.452Z,80.00
2022-12-07T04:43:14.082Z,79.90
2022-12-07T04:45:49.979Z,79.90
2022-12-07T04:48:19.925Z,79.60
2022-12-07T04:50:55.358Z,79.00
2022-12-07T04:53:25.473Z,79.40
2022-12-07T04:55:55.360Z,79.50
2022-12-07T04:58:25.260Z,78.70
2022-12-07T05:00:58.384Z,78.70
2022-12-07T05:03:28.338Z,78.60
2022-12-07T05:05:58.324Z,78.50
2022-12-07T05:08:28.377Z,77.50
2022-12-07T05:10:58.287Z,78.00
2022-12-07T05:13:28.205Z,77.90
2022-12-07T05:15:58.261Z,77.80
2022-12-07T05:18:29.146Z,78.00
2022-12-07T05:20:59.117Z,77.90
2022-12-07T05:23:28.997Z,77.10
2022-12-07T05:25:59.014Z,76.90
2022-12-07T05:28:29.031Z,76.60
2022-12-07T05:31:00.078Z,76.20
2022-12-07T05:33:30.123Z,76.50
2022-12-07T05:36:00.077Z,76.30
2022-12-07T05:38:29.982Z,76.30
2022-12-07T05:41:05.595Z,75.90
2022-12-07T05:43:35.498Z,75.90
2022-12-07T05:46:06.247Z,75.10
2022-12-07T05:48:36.361Z,74.80
2022-12-07T05:51:06.571Z,74.60
2022-12-07T05:53:36.613Z,74.90
2022-12-07T05:56:07.883Z,75.10
2022-12-07T05:58:57.966Z,74.90
2022-12-07T06:01:27.905Z,74.90
2022-12-07T06:03:57.775Z,74.80
2022-12-07T06:06:28.108Z,75.10
2022-12-07T06:08:58.056Z,75.40
2022-12-07T06:11:47.602Z,75.10
2022-12-07T06:14:17.558Z,75.00
2022-12-07T06:16:47.286Z,75.10
2022-12-07T06:19:17.866Z,75.30
2022-12-07T06:21:47.464Z,75.20
2022-12-07T06:24:18.700Z,75.00
2022-12-07T06:26:48.687Z,74.20
2022-12-07T06:29:19.228Z,73.80
2022-12-07T06:31:48.943Z,71.10
2022-12-07T06:34:21.495Z,72.10
2022-12-07T06:36:54.304Z,72.60
2022-12-07T06:39:26.772Z,73.00
2022-12-07T06:41:56.629Z,72.70
2022-12-07T06:44:27.094Z,72.20
2022-12-07T06:47:18.830Z,71.50
2022-12-07T06:49:47.862Z,71.90
2022-12-07T06:52:18.052Z,71.70
2022-12-07T06:54:48.089Z,71.80
2022-12-07T06:57:18.116Z,71.60
2022-12-07T06:59:48.139Z,71.80
2022-12-07T07:02:18.188Z,71.80
2022-12-07T07:04:48.208Z,71.50
2022-12-07T07:07:18.028Z,71.80
2022-12-07T07:09:47.889Z,71.80
2022-12-07T07:12:17.938Z,71.50
2022-12-07T07:14:47.835Z,70.50
2022-12-07T07:17:17.785Z,70.30
2022-12-07T07:19:47.584Z,70.70
2022-12-07T07:22:17.225Z,70.70
2022-12-07T07:24:47.424Z,70.60
2022-12-07T07:27:17.091Z,70.50
2022-12-07T07:29:46.701Z,70.50
2022-12-07T07:32:16.404Z,70.70
2022-12-07T07:34:46.141Z,70.60
2022-12-07T07:37:21.654Z,70.90
2022-12-07T07:39:51.591Z,71.30
2022-12-07T07:42:21.282Z,71.30
2022-12-07T07:44:51.006Z,71.50
2022-12-07T07:47:21.809Z,71.50
2022-12-07T07:49:51.660Z,71.20
2022-12-07T07:52:21.986Z,71.10
2022-12-07T07:54:52.054Z,69.90
2022-12-07T07:57:21.997Z,70.00
2022-12-07T07:59:51.995Z,70.20
2022-12-07T08:02:25.112Z,70.00
2022-12-07T08:04:55.052Z,70.40
2022-12-07T08:07:25.090Z,69.60
2022-12-07T08:09:55.196Z,68.80
2022-12-07T08:12:25.158Z,68.90
2022-12-07T08:14:55.139Z,69.20
2022-12-07T08:17:25.138Z,69.40
2022-12-07T08:19:54.846Z,69.50
2022-12-07T08:22:24.398Z,69.50
2022-12-07T08:24:54.140Z,69.20
2022-12-07T08:27:26.488Z,69.10
2022-12-07T08:29:56.143Z,69.10
2022-12-07T08:32:25.758Z,69.10
2022-12-07T08:34:56.142Z,69.20
2022-12-07T08:37:25.817Z,69.50
2022-12-07T08:39:55.468Z,69.50
2022-12-07T08:42:30.060Z,69.50
2022-12-07T08:45:00.704Z,69.30
2022-12-07T08:47:30.305Z,68.20
2022-12-07T08:50:06.034Z,67.60
2022-12-07T08:52:36.798Z,67.70
2022-12-07T08:55:07.964Z,68.20
2022-12-07T08:57:39.245Z,68.50
2022-12-07T09:00:10.177Z,68.70
2022-12-07T09:02:40.256Z,68.60
2022-12-07T09:05:16.154Z,68.60
2022-12-07T09:07:49.178Z,68.80
2022-12-07T09:10:19.426Z,68.70
2022-12-07T09:12:49.392Z,68.80
2022-12-07T09:15:19.382Z,68.70
2022-12-07T09:17:49.082Z,68.90
2022-12-07T09:20:20.164Z,68.80
2022-12-07T09:22:52.987Z,68.80
2022-12-07T09:25:22.631Z,68.70
2022-12-07T09:27:58.041Z,68.80
2022-12-07T09:30:29.155Z,68.70
2022-12-07T09:33:00.175Z,68.70
2022-12-07T09:35:29.975Z,68.80
2022-12-07T09:37:59.745Z,68.80
2022-12-07T09:40:30.533Z,69.00
2022-12-07T09:43:00.245Z,69.80
2022-12-07T09:45:38.483Z,69.10
2022-12-07T09:48:16.862Z,69.10
2022-12-07T09:50:47.007Z,69.10
2022-12-07T09:53:25.919Z,69.10
2022-12-07T09:55:56.804Z,69.20
2022-12-07T09:58:30.132Z,69.30
2022-12-07T10:01:13.824Z,69.00
2022-12-07T10:03:51.689Z,69.20
2022-12-07T10:06:21.765Z,69.50
2022-12-07T10:08:51.714Z,69.20
2022-12-07T10:11:21.319Z,69.40
2022-12-07T10:13:56.049Z,69.50
2022-12-07T10:16:43.708Z,69.60
2022-12-07T10:19:32.674Z,69.80
2022-12-07T10:22:12.717Z,70.00
2022-12-07T10:24:45.130Z,70.30
2022-12-07T10:27:29.931Z,70.50
2022-12-07T10:30:02.658Z,70.70
2022-12-07T10:32:38.331Z,71.00
2022-12-07T10:35:29.042Z,71.20
2022-12-07T10:38:00.948Z,71.40
2022-12-07T10:40:37.813Z,71.50
2022-12-07T10:43:19.667Z,72.50
2022-12-07T10:46:23.283Z,72.10
2022-12-07T10:49:27.511Z,72.30
2022-12-07T10:52:28.217Z,72.50
2022-12-07T10:55:25.198Z,73.50
2022-12-07T10:58:30.868Z,73.10
2022-12-07T11:01:39.616Z,73.60
2022-12-07T11:04:40.831Z,73.60
2022-12-07T11:07:55.078Z,73.80
2022-12-07T11:10:42.370Z,74.40
2022-12-07T11:13:43.548Z,74.70
2022-12-07T11:16:32.727Z,75.10
2022-12-07T11:19:41.476Z,75.50
2022-12-07T11:22:32.451Z,76.10
2022-12-07T11:25:41.241Z,76.20
2022-12-07T11:28:39.925Z,76.60
2022-12-07T11:31:29.504Z,77.00
2022-12-07T11:34:37.632Z,77.10
2022-12-07T11:37:15.315Z,77.50
2022-12-07T11:39:57.284Z,77.60
2022-12-07T11:42:33.092Z,77.90
2022-12-07T11:45:28.454Z,78.10
2022-12-07T11:48:13.075Z,78.60
2022-12-07T11:50:57.417Z,78.90
2022-12-07T11:53:36.367Z,79.40
2022-12-07T11:56:18.056Z,79.90
2022-12-07T11:59:19.183Z,80.20
2022-12-07T12:02:16.239Z,80.70
2022-12-07T12:05:01.433Z,80.60
2022-12-07T12:10:48.966Z,81.40
2022-12-07T12:16:58.961Z,81.30
2022-12-07T12:19:56.977Z,81.70
2022-12-07T12:22:39.718Z,82.00
2022-12-07T12:25:22.887Z,82.20
2022-12-07T12:27:55.156Z,82.80
2022-12-07T12:30:39.300Z,83.20
2022-12-07T12:33:19.793Z,83.50
2022-12-07T12:36:09.127Z,83.80
2022-12-07T12:38:53.292Z,84.00
2022-12-07T12:42:13.568Z,84.40
2022-12-07T12:44:44.431Z,84.80
2022-12-07T12:47:53.119Z,84.60
2022-12-07T12:50:27.703Z,84.70
2022-12-07T12:53:06.845Z,84.80
2022-12-07T12:56:13.850Z,85.00
2022-12-07T12:58:46.596Z,85.30
2022-12-07T13:01:42.707Z,85.50
2022-12-07T13:04:42.707Z,85.80
2022-12-07T13:07:36.409Z,86.20
2022-12-07T13:10:07.180Z,86.20
2022-12-07T13:12:44.233Z,86.30
2022-12-07T13:15:40.921Z,86.50
2022-12-07T13:18:45.204Z,86.60
2022-12-07T13:21:49.510Z,86.90
2022-12-07T13:24:19.588Z,87.00
2022-12-07T13:26:49.495Z,87.10
2022-12-07T13:29:24.333Z,87.20
2022-12-07T13:32:01.648Z,87.20
2022-12-07T13:34:46.418Z,87.40
2022-12-07T13:37:38.808Z,87.50
2022-12-07T13:40:28.452Z,87.50
2022-12-07T13:43:06.688Z,87.60
2022-12-07T13:45:57.296Z,87.60
2022-12-07T13:48:48.086Z,87.80
2022-12-07T13:51:24.697Z,88.00
2022-12-07T13:54:03.772Z,87.90
2022-12-07T13:56:38.370Z,87.90
2022-12-07T13:59:18.403Z,88.10
2022-12-07T14:01:51.777Z,88.20
2022-12-07T14:04:41.230Z,88.30
2022-12-07T14:07:31.744Z,88.40
2022-12-07T14:10:10.136Z,88.60
2022-12-07T14:12:40.574Z,88.50
2022-12-07T14:15:31.792Z,88.60
2022-12-07T14:18:06.067Z,88.90
2022-12-07T14:20:40.849Z,89.60
2022-12-07T14:23:30.209Z,89.00
2022-12-07T14:26:24.053Z,89.00
2022-12-07T14:28:53.624Z,89.20
2022-12-07T14:31:30.791Z,89.20
2022-12-07T14:34:03.727Z,89.40
2022-12-07T14:36:33.304Z,89.40
2022-12-07T14:39:02.864Z,89.50
2022-12-07T14:41:52.240Z,90.10
2022-12-07T14:44:27.115Z,89.50
2022-12-07T14:49:48.801Z,89.50
2022-12-07T14:55:28.700Z,89.80
2022-12-07T14:57:58.964Z,90.00
2022-12-07T15:00:31.463Z,90.00
2022-12-07T15:03:01.610Z,90.10
2022-12-07T15:05:31.255Z,90.10
2022-12-07T15:08:00.878Z,90.20
2022-12-07T15:10:34.509Z,90.30
2022-12-07T15:13:25.641Z,90.30
2022-12-07T15:15:57.212Z,90.30
2022-12-07T15:18:28.219Z,90.30
2022-12-07T15:20:57.814Z,90.40
2022-12-07T15:23:27.424Z,90.80
2022-12-07T15:25:56.956Z,90.40
2022-12-07T15:28:26.516Z,90.40
2022-12-07T15:30:56.037Z,90.50
2022-12-07T15:33:25.614Z,90.50
2022-12-07T15:35:55.373Z,90.50
2022-12-07T15:38:47.771Z,90.50
2022-12-07T15:41:14.894Z,90.60
2022-12-07T15:44:04.020Z,90.60
2022-12-07T15:46:36.177Z,90.60
2022-12-07T15:49:06.603Z,90.60
2022-12-07T15:51:36.234Z,90.70
2022-12-07T15:54:05.972Z,90.70
2022-12-07T15:56:36.692Z,90.80
2022-12-07T15:59:06.639Z,90.80
2022-12-07T16:01:36.807Z,90.90
2022-12-07T16:04:06.816Z,90.90
2022-12-07T16:06:36.905Z,90.90
2022-12-07T16:09:07.663Z,90.90
2022-12-07T16:11:37.942Z,90.90
2022-12-07T16:14:07.947Z,91.00
2022-12-07T16:16:37.993Z,91.00
2022-12-07T16:19:07.979Z,91.00
2022-12-07T16:21:38.539Z,91.10
2022-12-07T16:24:09.181Z,91.10
2022-12-07T16:26:40.263Z,91.10
2022-12-07T16:29:15.613Z,91.20
2022-12-07T16:31:45.679Z,91.20
2022-12-07T16:34:15.564Z,91.20
2022-12-07T16:39:36.917Z,91.30
2022-12-07T16:42:06.902Z,91.30
2022-12-07T16:44:36.844Z,91.30
2022-12-07T16:47:07.054Z,91.40
2022-12-07T16:49:37.003Z,91.40
2022-12-07T16:52:19.881Z,91.30
2022-12-07T16:54:52.163Z,91.40
2022-12-07T16:57:23.756Z,91.40
2022-12-07T16:59:55.406Z,91.40
2022-12-07T17:02:25.559Z,91.40
2022-12-07T17:04:55.543Z,91.50
2022-12-07T17:07:25.426Z,91.50
2022-12-07T17:09:56.516Z,91.60
2022-12-07T17:12:26.424Z,91.50
2022-12-07T17:15:15.958Z,91.60
2022-12-07T17:17:46.565Z,91.60
2022-12-07T17:20:17.588Z,91.60
2022-12-07T17:22:48.068Z,91.60
2022-12-07T17:25:18.726Z,91.60
2022-12-07T17:27:50.262Z,91.60
2022-12-07T17:30:20.343Z,91.60
2022-12-07T17:32:50.147Z,91.60
2022-12-07T17:35:20.063Z,91.70
2022-12-07T17:37:51.165Z,91.70
2022-12-07T17:40:21.333Z,91.80
2022-12-07T17:42:53.161Z,91.70
2022-12-07T17:45:23.154Z,91.80
2022-12-07T17:47:53.239Z,91.80
2022-12-07T17:50:42.748Z,91.80
2022-12-07T17:53:14.633Z,91.80
2022-12-07T17:58:34.785Z,91.80
2022-12-07T18:01:04.357Z,91.90
2022-12-07T18:03:34.316Z,92.00
2022-12-07T18:06:04.228Z,91.90
2022-12-07T18:08:38.389Z,92.00
2022-12-07T18:11:09.222Z,92.00
2022-12-07T18:13:39.554Z,92.10
2022-12-07T18:16:22.909Z,92.10
2022-12-07T18:18:55.682Z,92.10
2022-12-07T18:21:30.049Z,92.10
2022-12-07T18:24:03.874Z,92.10
2022-12-07T18:26:37.545Z,92.10
2022-12-07T18:29:08.870Z,92.10
2022-12-07T18:31:39.145Z,92.20
2022-12-07T18:34:13.815Z,92.20
2022-12-07T18:36:45.543Z,92.20
2022-12-07T18:39:16.569Z,92.20
2022-12-07T18:41:46.348Z,92.30
2022-12-07T18:44:16.168Z,92.30
2022-12-07T18:46:46.281Z,92.40
2022-12-07T18:49:16.732Z,92.40
2022-12-07T18:51:46.814Z,92.40
2022-12-07T18:54:16.449Z,92.40
2022-12-07T18:56:46.077Z,92.40
2022-12-07T18:59:36.565Z,92.40
2022-12-07T19:02:06.477Z,92.40
2022-12-07T19:04:36.605Z,92.50
2022-12-07T19:07:06.655Z,92.40
2022-12-07T19:09:36.603Z,92.50
2022-12-07T19:12:07.089Z,92.50
2022-12-07T19:14:40.187Z,92.50
2022-12-07T19:17:14.201Z,92.50
2022-12-07T19:19:48.013Z,92.60
2022-12-07T19:22:20.895Z,92.60
2022-12-07T19:24:57.451Z,92.60
2022-12-07T19:27:28.717Z,92.70
2022-12-07T19:29:58.602Z,92.70
2022-12-07T19:32:30.209Z,92.70
2022-12-07T19:35:00.805Z,92.70
2022-12-07T19:37:30.909Z,92.70
2022-12-07T19:40:00.783Z,92.80
2022-12-07T19:42:31.691Z,92.80
2022-12-07T19:45:01.809Z,92.70
2022-12-07T19:47:31.943Z,92.60
2022-12-07T19:50:01.913Z,92.70
2022-12-07T19:52:36.478Z,92.70
2022-12-07T19:55:07.207Z,92.70
2022-12-07T19:57:37.094Z,92.80
2022-12-07T20:00:08.023Z,92.80
2022-12-07T20:02:38.564Z,92.90
2022-12-07T20:05:08.963Z,93.00
2022-12-07T20:07:40.750Z,93.00
2022-12-07T20:10:10.943Z,93.00
2022-12-07T20:13:00.188Z,93.00
2022-12-07T20:15:33.746Z,93.00
2022-12-07T20:18:03.280Z,93.10
2022-12-07T20:20:32.862Z,93.10
2022-12-07T20:23:02.411Z,93.20
2022-12-07T20:25:33.793Z,93.30
2022-12-07T20:28:04.304Z,93.40
2022-12-07T20:30:33.975Z,93.40
2022-12-07T20:33:03.687Z,93.40
2022-12-07T20:35:33.257Z,93.40
2022-12-07T20:38:02.968Z,93.40
2022-12-07T20:40:35.473Z,93.40
2022-12-07T20:43:05.191Z,93.40
2022-12-07T20:45:34.767Z,93.50
2022-12-07T20:48:04.397Z,93.50
2022-12-07T20:50:37.634Z,93.50
2022-12-07T20:53:10.272Z,93.50
2022-12-07T20:55:40.794Z,93.50
2022-12-07T20:58:10.493Z,93.60
2022-12-07T21:00:41.248Z,93.70
2022-12-07T21:03:12.453Z,93.60
2022-12-07T21:05:47.445Z,93.60
2022-12-07T21:08:20.445Z,93.60
2022-12-07T21:10:50.364Z,93.70
2022-12-07T21:13:20.297Z,93.70
2022-12-07T21:15:50.272Z,93.70
2022-12-07T21:18:20.274Z,93.70
2022-12-07T21:20:50.180Z,93.70
2022-12-07T21:23:20.042Z,93.80
2022-12-07T21:25:49.982Z,93.80
2022-12-07T21:28:19.908Z,93.80
2022-12-07T21:31:12.187Z,93.80
2022-12-07T21:33:41.073Z,93.80
2022-12-07T21:36:12.952Z,93.70
2022-12-07T21:38:43.302Z,93.70
2022-12-07T21:41:16.351Z,93.70
2022-12-07T21:43:46.881Z,93.70
2022-12-07T21:46:18.663Z,93.70
2022-12-07T21:48:57.005Z,93.70
2022-12-07T21:51:29.714Z,93.70
2022-12-07T21:54:01.564Z,93.80
2022-12-07T21:56:34.492Z,93.80
2022-12-07T21:59:07.528Z,93.80
2022-12-07T22:01:40.936Z,93.80
2022-12-07T22:04:13.931Z,93.80
2022-12-07T22:06:44.151Z,93.90
2022-12-07T22:09:14.635Z,93.90
2022-12-07T22:11:44.709Z,93.90
2022-12-07T22:14:34.441Z,93.90
2022-12-07T22:17:04.887Z,93.90
2022-12-07T22:19:34.783Z,93.90
2022-12-07T22:22:04.687Z,93.90
2022-12-07T22:24:35.621Z,93.90
2022-12-07T22:27:05.521Z,94.00
2022-12-07T22:29:35.423Z,94.00
2022-12-07T22:32:24.786Z,94.00
2022-12-07T22:34:55.311Z,94.10
2022-12-07T22:37:25.188Z,94.10
2022-12-07T22:39:55.086Z,94.00
2022-12-07T22:42:24.983Z,94.00
2022-12-07T22:44:55.007Z,94.00
2022-12-07T22:47:25.038Z,94.00
2022-12-07T22:49:55.008Z,94.10
2022-12-07T22:52:24.923Z,94.10
2022-12-07T22:54:54.752Z,94.00
2022-12-07T22:57:24.635Z,94.10
2022-12-07T22:59:54.554Z,94.10
2022-12-07T23:02:25.025Z,94.10
2022-12-07T23:04:54.725Z,94.10
2022-12-07T23:07:24.629Z,94.10
2022-12-07T23:09:54.257Z,94.10
2022-12-07T23:12:43.458Z,94.10
2022-12-07T23:15:13.516Z,94.10
2022-12-07T23:17:43.113Z,94.20
2022-12-07T23:20:13.121Z,94.10
2022-12-07T23:22:42.688Z,94.10
2022-12-07T23:25:12.413Z,94.10
2022-12-07T23:27:42.027Z,94.20
2022-12-07T23:30:12.021Z,94.20
2022-12-07T23:32:41.567Z,94.20
2022-12-07T23:35:11.346Z,94.20
2022-12-07T23:37:40.883Z,94.20
2022-12-07T23:40:11.014Z,94.30
2022-12-07T23:42:40.596Z,94.20
2022-12-07T23:45:10.602Z,94.30
2022-12-07T23:47:40.111Z,94.20
2022-12-07T23:50:10.777Z,94.20
2022-12-07T23:52:40.423Z,94.20
2022-12-07T23:55:10.503Z,94.30
2022-12-07T23:57:40.120Z,94.30
